Time;durP1;ratioP1;P1;durP2;ratioP2;P2;SDS_P1;SDS_P2;PMS_P1;PMS_P2;Temp;Humidity;BMP_temperature;BMP_pressure;BME280_temperature;BME280_humidity;BME280_pressure;Samples;Min_cycle;Max_cycle;Signal;HPM_P1;HPM_P2
2022/06/22 00:02:17;;;;;;;4.40;2.30;;;15.60;99.90;;;;;;5084680;28;20036;-64
2022/06/22 00:04:55;;;;;;;3.75;1.67;;;15.70;99.90;;;;;;5072718;28;20024;-63
2022/06/22 00:07:34;;;;;;;5.88;2.20;;;15.70;99.90;;;;;;5077529;28;20403;-62
2022/06/22 00:10:17;;;;;;;5.10;2.00;;;15.50;99.90;;;;;;5081432;28;20386;-65
2022/06/22 00:12:48;;;;;;;4.00;1.80;;;15.70;99.90;;;;;;5078713;28;20024;-63
2022/06/22 00:15:35;;;;;;;5.45;1.88;;;15.70;99.90;;;;;;5084590;28;20486;-62
2022/06/22 00:18:02;;;;;;;7.07;1.98;;;15.60;99.90;;;;;;5083570;28;20635;-64
2022/06/22 00:20:31;;;;;;;6.85;2.38;;;15.60;99.90;;;;;;5079471;28;20379;-64
2022/06/22 00:22:58;;;;;;;4.22;2.08;;;15.40;99.90;;;;;;5084075;28;20020;-65
2022/06/22 00:25:35;;;;;;;7.00;2.10;;;15.30;99.90;;;;;;5082841;28;20357;-64
2022/06/22 00:28:24;;;;;;;3.05;1.85;;;15.10;99.90;;;;;;5076048;28;20042;-64
2022/06/22 00:30:50;;;;;;;5.60;2.10;;;14.70;99.90;;;;;;5082936;28;20501;-65
2022/06/22 00:33:25;;;;;;;5.43;2.67;;;14.80;99.90;;;;;;5081153;28;20519;-63
2022/06/22 00:35:54;;;;;;;6.93;2.22;;;14.90;99.90;;;;;;5075613;28;20502;-63
2022/06/22 00:38:30;;;;;;;8.27;2.38;;;14.70;99.90;;;;;;5072390;28;20020;-65
2022/06/22 00:41:03;;;;;;;6.28;2.38;;;14.80;99.90;;;;;;5075767;28;20064;-63
2022/06/22 00:43:32;;;;;;;6.88;2.53;;;14.70;99.90;;;;;;5075718;28;20027;-64
2022/06/22 00:45:59;;;;;;;7.50;2.58;;;14.60;99.90;;;;;;5086404;28;20031;-64
2022/06/22 00:48:32;;;;;;;7.28;2.60;;;14.60;99.90;;;;;;5094026;28;20019;-64
2022/06/22 00:51:06;;;;;;;5.17;2.53;;;14.70;99.90;;;;;;5086296;28;20028;-65
2022/06/22 00:53:51;;;;;;;7.20;2.65;;;14.80;99.90;;;;;;5085339;28;20262;-65
2022/06/22 00:56:22;;;;;;;4.55;2.38;;;14.80;99.90;;;;;;5071314;28;20025;-63
2022/06/22 00:58:55;;;;;;;5.65;2.50;;;14.60;99.90;;;;;;5078886;28;20024;-64
2022/06/22 01:01:37;;;;;;;4.72;2.28;;;14.60;99.90;;;;;;5077262;28;20047;-65
2022/06/22 01:04:12;;;;;;;5.32;2.60;;;14.60;99.90;;;;;;5089603;28;20491;-64
2022/06/22 01:06:54;;;;;;;5.88;2.63;;;14.60;99.90;;;;;;5079910;28;20079;-64
2022/06/22 01:09:26;;;;;;;7.15;2.80;;;14.50;99.90;;;;;;5071335;28;20085;-63
2022/06/22 01:12:17;;;;;;;5.03;2.65;;;14.40;99.90;;;;;;5074859;28;20567;-64
2022/06/22 01:15:01;;;;;;;4.93;2.63;;;14.40;99.90;;;;;;5071386;28;20704;-62
2022/06/22 01:17:34;;;;;;;7.13;2.85;;;14.40;99.90;;;;;;5079705;28;20162;-65
2022/06/22 01:20:21;;;;;;;4.18;2.67;;;14.60;99.90;;;;;;5075118;28;20024;-64
2022/06/22 01:23:24;;;;;;;5.57;2.70;;;14.40;99.90;;;;;;5074404;28;20468;-65
2022/06/22 01:26:18;;;;;;;6.07;2.92;;;14.40;99.90;;;;;;5078682;28;20035;-64
2022/06/22 01:28:52;;;;;;;5.43;2.72;;;14.60;99.90;;;;;;5055729;28;20044;-64
2022/06/22 01:31:17;;;;;;;5.95;3.13;;;14.50;99.90;;;;;;5082206;28;20032;-63
2022/06/22 01:33:47;;;;;;;7.30;3.20;;;14.50;99.90;;;;;;5073615;28;20111;-65
2022/06/22 01:36:28;;;;;;;4.35;2.78;;;14.50;99.90;;;;;;5081523;28;20082;-63
2022/06/22 01:38:54;;;;;;;10.07;3.25;;;14.80;99.90;;;;;;5073759;28;20046;-62
2022/06/22 01:41:28;;;;;;;6.78;2.92;;;14.60;99.90;;;;;;5080031;28;20051;-64
2022/06/22 01:44:05;;;;;;;8.05;3.10;;;14.70;99.90;;;;;;5080528;28;20384;-64
2022/06/22 01:47:05;;;;;;;8.63;2.78;;;14.70;99.90;;;;;;5079300;28;20029;-64
2022/06/22 01:49:36;;;;;;;8.40;2.85;;;14.80;99.90;;;;;;5081289;28;20036;-63
2022/06/22 01:52:12;;;;;;;7.70;2.80;;;14.50;99.90;;;;;;5075814;28;20108;-64
2022/06/22 01:54:50;;;;;;;5.95;2.70;;;14.60;99.90;;;;;;5083301;28;20066;-64
2022/06/22 01:57:26;;;;;;;5.68;3.17;;;14.50;99.90;;;;;;5080108;28;20016;-63
2022/06/22 02:00:06;;;;;;;6.28;2.67;;;14.50;99.90;;;;;;5084067;28;20561;-63
2022/06/22 02:02:58;;;;;;;6.28;2.80;;;14.60;99.90;;;;;;5068973;28;20627;-63
2022/06/22 02:05:43;;;;;;;9.20;3.00;;;14.60;99.90;;;;;;5076242;28;20024;-64
2022/06/22 02:08:32;;;;;;;5.28;2.92;;;14.60;99.90;;;;;;5085014;28;20028;-64
2022/06/22 02:11:12;;;;;;;5.18;3.15;;;14.40;99.90;;;;;;5075174;28;20114;-63
2022/06/22 02:14:02;;;;;;;6.47;3.22;;;14.30;99.90;;;;;;5075488;28;20021;-64
2022/06/22 02:16:49;;;;;;;6.90;2.95;;;14.30;99.90;;;;;;5079123;28;20171;-63
2022/06/22 02:19:17;;;;;;;6.32;2.88;;;14.20;99.90;;;;;;5080824;28;20044;-63
2022/06/22 02:21:46;;;;;;;4.63;2.90;;;14.30;99.90;;;;;;5088013;28;20031;-64
2022/06/22 02:24:26;;;;;;;8.95;3.20;;;14.30;99.90;;;;;;5078873;28;20666;-65
2022/06/22 02:27:04;;;;;;;8.95;3.15;;;14.30;99.90;;;;;;5085032;28;20020;-64
2022/06/22 02:29:51;;;;;;;7.90;3.20;;;14.10;99.90;;;;;;5083210;28;20097;-63
2022/06/22 02:32:31;;;;;;;6.43;3.08;;;14.10;99.90;;;;;;5079369;28;20028;-63
2022/06/22 02:34:58;;;;;;;8.00;3.28;;;14.30;99.90;;;;;;5075997;28;20084;-65
2022/06/22 02:37:27;;;;;;;6.15;3.28;;;14.20;99.90;;;;;;5077769;28;20028;-64
2022/06/22 02:39:57;;;;;;;6.93;3.10;;;14.40;99.90;;;;;;5075998;28;20031;-62
2022/06/22 02:45:09;;;;;;;7.05;3.20;;;14.20;99.90;;;;;;5074818;28;20125;-63
2022/06/22 02:47:47;;;;;;;8.75;3.17;;;14.30;99.90;;;;;;5072792;28;20024;-63
2022/06/22 02:50:35;;;;;;;4.95;3.00;;;14.30;99.90;;;;;;5072849;28;20024;-63
2022/06/22 02:53:05;;;;;;;5.32;3.03;;;14.10;99.90;;;;;;5072425;28;20027;-63
2022/06/22 02:55:34;;;;;;;3.88;3.13;;;14.00;99.90;;;;;;5078947;28;20024;-63
2022/06/22 02:58:03;;;;;;;6.32;3.55;;;13.90;99.90;;;;;;5073242;28;20147;-64
2022/06/22 03:00:37;;;;;;;4.53;2.95;;;13.90;99.90;;;;;;5075516;28;20232;-64
2022/06/22 03:03:16;;;;;;;6.65;3.20;;;13.90;99.90;;;;;;5088832;28;20408;-63
2022/06/22 03:05:46;;;;;;;5.85;3.20;;;14.00;99.90;;;;;;5081002;28;20119;-62
2022/06/22 03:08:14;;;;;;;6.80;3.00;;;14.00;99.90;;;;;;5079608;28;20028;-63
2022/06/22 03:11:04;;;;;;;4.25;2.97;;;14.10;99.90;;;;;;5077412;28;20028;-63
2022/06/22 03:13:46;;;;;;;4.97;3.15;;;13.90;99.90;;;;;;5075046;28;20044;-64
2022/06/22 03:16:34;;;;;;;7.25;2.72;;;13.80;99.90;;;;;;5081690;28;20438;-64
2022/06/22 03:19:04;;;;;;;6.07;3.45;;;13.60;99.90;;;;;;5083118;28;20070;-63
2022/06/22 03:21:31;;;;;;;6.85;3.08;;;13.60;99.90;;;;;;5076905;28;20084;-63
2022/06/22 03:24:05;;;;;;;8.00;3.60;;;13.70;99.90;;;;;;5078084;28;20023;-64
2022/06/22 03:26:44;;;;;;;5.60;3.30;;;13.70;99.90;;;;;;5091092;28;20028;-63
2022/06/22 03:29:15;;;;;;;6.15;3.30;;;13.70;99.90;;;;;;5074715;28;20034;-63
2022/06/22 03:31:56;;;;;;;3.88;3.30;;;13.80;99.90;;;;;;5084434;28;20079;-64
2022/06/22 03:34:27;;;;;;;6.68;3.53;;;13.70;99.90;;;;;;5071891;28;20098;-65
2022/06/22 03:36:55;;;;;;;6.25;3.72;;;13.70;99.90;;;;;;5075066;28;20036;-64
2022/06/22 03:39:25;;;;;;;4.95;3.65;;;13.70;99.90;;;;;;5075938;28;20082;-65
2022/06/22 03:41:58;;;;;;;6.97;3.83;;;13.60;99.90;;;;;;5076006;28;20024;-63
2022/06/22 03:44:28;;;;;;;5.53;4.00;;;13.50;99.90;;;;;;5080804;28;20360;-63
2022/06/22 03:47:00;;;;;;;7.63;4.00;;;13.40;99.90;;;;;;5082839;28;20093;-63
2022/06/22 03:49:40;;;;;;;6.53;4.38;;;13.50;99.90;;;;;;5073922;28;20077;-63
2022/06/22 03:52:26;;;;;;;4.80;4.07;;;13.40;99.90;;;;;;5074805;28;20095;-65
2022/06/22 03:55:14;;;;;;;7.60;4.75;;;13.60;99.90;;;;;;5070994;28;20193;-65
2022/06/22 03:57:43;;;;;;;6.50;4.13;;;13.50;99.90;;;;;;5070230;28;20024;-63
2022/06/22 04:00:12;;;;;;;9.75;4.22;;;13.70;99.90;;;;;;5078986;28;20425;-65
2022/06/22 04:02:39;;;;;;;7.15;4.40;;;13.80;99.90;;;;;;5073455;28;20017;-63
2022/06/22 04:05:06;;;;;;;7.80;4.35;;;13.80;99.90;;;;;;5080521;28;20075;-64
2022/06/22 04:07:37;;;;;;;9.05;4.15;;;14.10;99.90;;;;;;5075156;28;20024;-63
2022/06/22 04:10:05;;;;;;;9.07;5.45;;;13.90;99.90;;;;;;5098074;27;20442;-63
2022/06/22 04:12:36;;;;;;;7.05;4.57;;;13.80;99.90;;;;;;5080704;28;20032;-65
2022/06/22 04:15:32;;;;;;;7.07;4.68;;;13.80;99.90;;;;;;5073678;28;20032;-63
2022/06/22 04:18:28;;;;;;;7.32;4.85;;;14.20;99.90;;;;;;5079803;28;20019;-63
2022/06/22 04:21:00;;;;;;;7.63;4.75;;;14.40;99.90;;;;;;5074921;28;20040;-63
2022/06/22 04:23:38;;;;;;;5.53;4.43;;;14.40;99.90;;;;;;5085045;28;20024;-64
2022/06/22 04:26:24;;;;;;;11.20;5.57;;;14.50;99.90;;;;;;5081991;28;20543;-65
2022/06/22 04:28:56;;;;;;;9.18;4.80;;;14.50;99.90;;;;;;5077313;28;20032;-64
2022/06/22 04:31:29;;;;;;;8.18;5.20;;;14.50;99.90;;;;;;5074059;28;20063;-64
2022/06/22 04:34:07;;;;;;;7.50;4.68;;;14.80;99.90;;;;;;5076472;28;20421;-64
2022/06/22 04:36:43;;;;;;;9.15;5.18;;;14.80;99.90;;;;;;5072291;28;20016;-63
2022/06/22 04:39:21;;;;;;;8.77;5.18;;;15.10;99.90;;;;;;5074673;28;20494;-64
2022/06/22 04:41:48;;;;;;;8.30;5.05;;;15.00;99.90;;;;;;5075433;28;20480;-63
2022/06/22 04:44:18;;;;;;;8.35;5.22;;;15.30;99.90;;;;;;5069830;28;20013;-63
2022/06/22 04:46:52;;;;;;;7.60;4.85;;;15.30;99.90;;;;;;5074094;28;20021;-63
2022/06/22 04:49:31;;;;;;;10.32;5.53;;;15.30;99.90;;;;;;5075669;28;20023;-64
2022/06/22 04:52:01;;;;;;;8.15;5.22;;;15.20;99.90;;;;;;5076439;28;20058;-64
2022/06/22 04:54:32;;;;;;;10.07;5.10;;;15.30;99.90;;;;;;5077299;28;20051;-64
2022/06/22 04:57:02;;;;;;;9.73;4.90;;;15.20;99.90;;;;;;5075696;28;20031;-64
2022/06/22 04:59:29;;;;;;;7.10;5.43;;;15.30;99.90;;;;;;5072747;28;20024;-65
2022/06/22 05:02:04;;;;;;;10.60;5.43;;;15.20;99.90;;;;;;5079809;28;20350;-64
2022/06/22 05:04:44;;;;;;;8.10;5.18;;;15.30;99.90;;;;;;5083677;28;20039;-64
2022/06/22 05:07:35;;;;;;;8.63;5.50;;;15.40;99.90;;;;;;5079078;28;20077;-64
2022/06/22 05:10:02;;;;;;;7.40;5.13;;;15.40;99.90;;;;;;5091928;28;20148;-64
2022/06/22 05:12:33;;;;;;;10.10;5.07;;;15.70;99.90;;;;;;5081893;28;20032;-64
2022/06/22 05:15:02;;;;;;;9.60;5.45;;;15.80;99.90;;;;;;5073674;28;20024;-63
2022/06/22 05:17:31;;;;;;;10.77;5.47;;;15.80;99.90;;;;;;5084476;28;20069;-63
2022/06/22 05:20:10;;;;;;;8.25;5.10;;;15.90;99.90;;;;;;5077963;28;20028;-64
2022/06/22 05:22:36;;;;;;;6.57;5.10;;;16.10;99.90;;;;;;5081955;28;20031;-65
2022/06/22 05:25:05;;;;;;;7.78;5.32;;;16.10;99.90;;;;;;5084855;28;20024;-64
2022/06/22 05:27:46;;;;;;;6.82;5.20;;;16.00;99.90;;;;;;5077642;28;20285;-63
2022/06/22 05:30:12;;;;;;;9.02;5.38;;;16.20;99.90;;;;;;5073656;28;20390;-63
2022/06/22 05:32:54;;;;;;;12.02;7.65;;;16.40;99.90;;;;;;5081937;28;20395;-69
2022/06/22 05:35:31;;;;;;;12.68;5.63;;;16.50;99.90;;;;;;5074064;28;20496;-63
2022/06/22 05:38:00;;;;;;;13.25;4.78;;;16.50;99.90;;;;;;5076820;28;20024;-63
2022/06/22 05:40:28;;;;;;;11.40;4.85;;;16.70;99.90;;;;;;5081860;28;20061;-65
2022/06/22 05:42:55;;;;;;;10.98;5.05;;;16.70;99.90;;;;;;5080572;28;20025;-64
2022/06/22 05:45:27;;;;;;;9.40;4.72;;;17.00;99.90;;;;;;5075809;28;20052;-63
2022/06/22 05:47:55;;;;;;;12.68;5.30;;;17.10;99.90;;;;;;5081515;28;20059;-63
2022/06/22 05:50:28;;;;;;;14.43;4.65;;;17.50;99.90;;;;;;5086396;28;20046;-63
2022/06/22 05:53:17;;;;;;;11.30;5.43;;;17.40;99.90;;;;;;5079527;28;20443;-65
2022/06/22 05:55:55;;;;;;;13.75;5.00;;;17.40;99.90;;;;;;5089946;28;20476;-63
2022/06/22 05:58:48;;;;;;;13.98;5.75;;;17.30;99.90;;;;;;5079603;28;20060;-64
2022/06/22 06:01:46;;;;;;;16.10;5.20;;;17.20;99.90;;;;;;5079081;28;20122;-63
2022/06/22 06:04:28;;;;;;;9.00;4.18;;;17.40;99.90;;;;;;5084645;28;20298;-62
2022/06/22 06:06:59;;;;;;;9.95;4.88;;;17.60;99.90;;;;;;5079012;28;20060;-63
2022/06/22 06:09:26;;;;;;;12.18;4.50;;;17.90;99.90;;;;;;5075207;28;20399;-62
2022/06/22 06:12:13;;;;;;;11.18;4.25;;;18.00;99.90;;;;;;5084745;28;20115;-64
2022/06/22 06:14:42;;;;;;;9.65;4.30;;;17.90;99.90;;;;;;5081655;28;20029;-63
2022/06/22 06:17:13;;;;;;;20.00;4.35;;;17.80;99.90;;;;;;5076351;28;20042;-62
2022/06/22 06:19:43;;;;;;;12.85;4.15;;;17.80;99.90;;;;;;5077288;28;20025;-64
2022/06/22 06:22:10;;;;;;;11.85;4.30;;;17.80;99.90;;;;;;5075519;28;20016;-63
2022/06/22 06:27:34;;;;;;;11.32;4.15;;;17.90;99.90;;;;;;5078846;28;20020;-64
2022/06/22 06:27:34;;;;;;;10.65;4.22;;;18.00;99.90;;;;;;5080667;28;20111;-64
2022/06/22 06:30:27;;;;;;;7.63;4.13;;;18.30;99.90;;;;;;5077531;28;20028;-65
2022/06/22 06:33:04;;;;;;;10.10;4.30;;;18.40;99.90;;;;;;5079231;28;20036;-63
2022/06/22 06:35:50;;;;;;;10.55;4.40;;;18.40;99.90;;;;;;5074901;28;20040;-62
2022/06/22 06:38:39;;;;;;;9.35;4.18;;;18.50;99.90;;;;;;5076390;28;20031;-64
2022/06/22 06:41:07;;;;;;;9.77;4.20;;;18.50;99.90;;;;;;5077229;28;20028;-63
2022/06/22 06:43:48;;;;;;;12.70;4.03;;;18.80;99.90;;;;;;5082606;28;20028;-65
2022/06/22 06:46:44;;;;;;;10.77;4.32;;;18.80;99.90;;;;;;5072642;28;20032;-63
2022/06/22 06:49:09;;;;;;;12.85;4.40;;;18.80;99.90;;;;;;5080506;28;20020;-64
2022/06/22 06:51:39;;;;;;;10.35;4.55;;;19.00;99.90;;;;;;5075669;28;20098;-64
2022/06/22 06:54:14;;;;;;;10.30;4.65;;;19.00;99.90;;;;;;5081090;28;20036;-64
2022/06/22 06:56:48;;;;;;;7.85;3.80;;;19.00;99.90;;;;;;5086228;28;20055;-64
2022/06/22 06:59:19;;;;;;;9.30;4.13;;;19.10;99.90;;;;;;5081971;28;20095;-64
2022/06/22 07:01:46;;;;;;;12.43;4.45;;;19.30;99.90;;;;;;5075690;28;20028;-65
2022/06/22 07:04:24;;;;;;;12.40;4.10;;;19.30;99.90;;;;;;5083863;28;20027;-64
2022/06/22 07:06:54;;;;;;;9.90;4.07;;;19.40;99.90;;;;;;5081661;28;20495;-65
2022/06/22 07:09:31;;;;;;;10.75;3.92;;;19.60;99.90;;;;;;5074669;28;20028;-65
2022/06/22 07:12:12;;;;;;;9.25;3.60;;;19.60;99.90;;;;;;5081085;28;20135;-64
2022/06/22 07:14:41;;;;;;;11.98;4.07;;;19.80;99.90;;;;;;5083054;28;20067;-64
2022/06/22 07:17:14;;;;;;;13.32;3.60;;;20.00;99.90;;;;;;5077913;28;20020;-65
2022/06/22 07:19:45;;;;;;;7.78;3.65;;;20.00;99.90;;;;;;5087547;28;20542;-63
2022/06/22 07:22:25;;;;;;;8.75;3.60;;;20.10;99.90;;;;;;5080956;28;20059;-65
2022/06/22 07:25:02;;;;;;;14.45;4.35;;;20.30;99.90;;;;;;5075657;28;20028;-63
2022/06/22 07:27:36;;;;;;;10.88;4.32;;;20.20;99.90;;;;;;5077622;28;20559;-64
2022/06/22 07:30:24;;;;;;;13.23;4.20;;;20.40;99.90;;;;;;5080294;28;20024;-64
2022/06/22 07:33:12;;;;;;;9.20;3.70;;;20.30;99.90;;;;;;5074194;28;20035;-64
2022/06/22 07:35:48;;;;;;;12.82;4.28;;;20.60;99.90;;;;;;5078632;28;20053;-63
2022/06/22 07:38:40;;;;;;;16.30;4.65;;;20.60;99.90;;;;;;5081020;28;20739;-65
2022/06/22 07:41:18;;;;;;;17.25;4.57;;;20.80;99.90;;;;;;5084782;28;20087;-64
2022/06/22 07:43:49;;;;;;;12.65;4.50;;;20.90;99.90;;;;;;5089551;28;20020;-65
2022/06/22 07:46:51;;;;;;;9.38;5.05;;;20.90;99.90;;;;;;5086910;28;20088;-63
2022/06/22 07:49:39;;;;;;;14.45;4.53;;;20.90;99.90;;;;;;5068589;28;20103;-63
2022/06/22 07:52:10;;;;;;;10.25;4.18;;;21.10;99.90;;;;;;5082336;28;20468;-64
2022/06/22 07:54:38;;;;;;;17.17;4.55;;;21.20;99.90;;;;;;5078932;28;20586;-63
2022/06/22 07:57:33;;;;;;;12.80;4.05;;;21.00;99.90;;;;;;5087557;28;20032;-65
2022/06/22 08:00:25;;;;;;;11.05;3.40;;;21.10;99.90;;;;;;5074092;28;20487;-66
2022/06/22 08:03:26;;;;;;;11.27;4.63;;;21.40;99.90;;;;;;5081654;28;20058;-64
2022/06/22 08:05:55;;;;;;;14.40;4.00;;;21.00;99.90;;;;;;5083039;28;20032;-65
2022/06/22 08:08:32;;;;;;;10.68;4.10;;;21.30;99.90;;;;;;5076459;28;20020;-64
2022/06/22 08:11:20;;;;;;;10.38;4.30;;;21.40;99.90;;;;;;5083503;28;20024;-66
2022/06/22 08:14:44;;;;;;;13.48;4.07;;;21.70;99.90;;;;;;5082193;28;20020;-64
2022/06/22 08:17:18;;;;;;;10.70;4.33;;;21.90;99.90;;;;;;5064122;28;20058;-65
2022/06/22 08:19:43;;;;;;;10.50;3.17;;;21.60;99.90;;;;;;5079318;28;20039;-64
2022/06/22 08:22:11;;;;;;;7.20;3.50;;;21.80;99.90;;;;;;5068715;28;20424;-65
2022/06/22 08:24:46;;;;;;;8.25;2.90;;;22.00;99.90;;;;;;5079091;28;20027;-64
2022/06/22 08:27:20;;;;;;;6.05;2.67;;;21.90;99.90;;;;;;5081609;28;20472;-65
2022/06/22 08:29:49;;;;;;;9.27;2.25;;;22.20;99.90;;;;;;5076089;28;20033;-64
2022/06/22 08:32:40;;;;;;;6.53;2.33;;;22.50;99.90;;;;;;5084256;28;20051;-64
2022/06/22 08:35:22;;;;;;;6.53;2.20;;;22.60;99.90;;;;;;5085159;28;20766;-64
2022/06/22 08:38:07;;;;;;;6.20;2.17;;;22.70;99.90;;;;;;5079122;28;20151;-65
2022/06/22 08:40:47;;;;;;;8.95;2.42;;;22.70;99.90;;;;;;5083425;28;20012;-65
2022/06/22 08:43:29;;;;;;;9.27;2.80;;;22.70;99.90;;;;;;5090151;28;20023;-64
2022/06/22 08:46:21;;;;;;;10.40;2.97;;;22.90;99.90;;;;;;5090271;28;20168;-64
2022/06/22 08:49:02;;;;;;;9.73;2.80;;;22.50;99.90;;;;;;5080231;28;20040;-66
2022/06/22 08:52:03;;;;;;;7.45;2.13;;;22.60;99.90;;;;;;5073799;28;20051;-65
2022/06/22 08:55:11;;;;;;;6.45;2.08;;;22.90;99.90;;;;;;5072798;28;20111;-65
2022/06/22 08:58:01;;;;;;;8.35;2.17;;;23.20;99.90;;;;;;5084242;28;20016;-64
2022/06/22 09:00:32;;;;;;;6.15;1.95;;;23.40;99.90;;;;;;5074768;28;20483;-65
2022/06/22 09:03:24;;;;;;;9.88;2.38;;;23.20;99.90;;;;;;5074758;28;20028;-65
2022/06/22 09:05:52;;;;;;;6.80;2.10;;;23.20;99.90;;;;;;5061459;28;20041;-66
2022/06/22 09:08:52;;;;;;;5.50;1.88;;;23.00;99.90;;;;;;5078932;28;20024;-65
2022/06/22 09:11:40;;;;;;;10.63;2.65;;;23.30;99.90;;;;;;5081304;28;20496;-66
2022/06/22 09:14:24;;;;;;;8.85;2.58;;;23.30;99.90;;;;;;5086234;28;20036;-66
2022/06/22 09:17:15;;;;;;;8.60;2.42;;;23.60;99.90;;;;;;5075219;28;20036;-64
2022/06/22 09:19:59;;;;;;;7.35;2.20;;;23.30;99.90;;;;;;5082290;28;20170;-64
2022/06/22 09:22:46;;;;;;;6.18;1.92;;;23.50;99.90;;;;;;5073419;28;20650;-66
2022/06/22 09:25:33;;;;;;;6.85;2.20;;;23.60;99.90;;;;;;5077694;28;20090;-65
2022/06/22 09:28:14;;;;;;;5.10;2.15;;;23.80;99.90;;;;;;5075449;28;20043;-65
2022/06/22 09:31:07;;;;;;;7.50;2.25;;;23.80;99.90;;;;;;5081766;28;20043;-64
2022/06/22 09:33:38;;;;;;;8.10;2.63;;;23.70;99.90;;;;;;5085059;28;20549;-66
2022/06/22 09:36:33;;;;;;;6.32;1.90;;;23.50;99.90;;;;;;5081989;28;20012;-65
2022/06/22 09:39:16;;;;;;;7.47;2.10;;;23.60;99.90;;;;;;5078583;28;20029;-65
2022/06/22 09:41:59;;;;;;;;;;;24.00;99.90;;;;;;5074561;28;20078;-65
2022/06/22 09:44:45;;;;;;;5.65;1.98;;;24.00;99.90;;;;;;5075045;28;20355;-64
2022/06/22 09:47:29;;;;;;;5.38;1.73;;;23.90;99.90;;;;;;5089219;28;20067;-66
2022/06/22 09:50:03;;;;;;;6.30;2.17;;;24.10;99.90;;;;;;5074845;28;20032;-66
2022/06/22 09:53:06;;;;;;;9.23;2.40;;;24.20;99.90;;;;;;5080723;28;20063;-65
2022/06/22 09:58:47;;;;;;;4.35;1.70;;;24.30;99.90;;;;;;5076378;28;20039;-65
2022/06/22 10:01:54;;;;;;;6.75;1.98;;;24.20;99.90;;;;;;5079062;28;20472;-65
2022/06/22 10:04:31;;;;;;;5.65;2.00;;;24.30;99.90;;;;;;5080866;28;20036;-65
2022/06/22 10:07:21;;;;;;;7.53;1.80;;;24.30;99.90;;;;;;5081324;28;20064;-65
2022/06/22 10:10:05;;;;;;;7.82;4.20;;;24.50;99.90;;;;;;5075965;28;20037;-68
2022/06/22 10:12:53;;;;;;;8.27;1.80;;;24.50;99.90;;;;;;5085066;28;20032;-65
2022/06/22 10:15:39;;;;;;;5.80;2.10;;;24.60;99.90;;;;;;5089411;28;20028;-64
2022/06/22 10:18:22;;;;;;;8.65;2.00;;;24.60;99.90;;;;;;5081965;28;20023;-64
2022/06/22 10:21:09;;;;;;;12.30;2.30;;;24.30;99.90;;;;;;5078333;28;20035;-64
2022/06/22 10:23:51;;;;;;;6.30;1.90;;;24.40;99.90;;;;;;5082284;28;21586;-64
2022/06/22 10:26:26;;;;;;;10.88;2.10;;;24.60;99.90;;;;;;5080186;28;20024;-64
2022/06/22 10:29:16;;;;;;;8.80;1.80;;;24.70;99.90;;;;;;5082495;28;21380;-65
2022/06/22 10:32:03;;;;;;;6.30;1.95;;;24.80;99.90;;;;;;5081342;28;20491;-66
2022/06/22 10:34:41;;;;;;;6.07;2.00;;;24.80;99.90;;;;;;5082123;28;20923;-64
2022/06/22 10:37:45;;;;;;;9.00;1.98;;;24.70;99.90;;;;;;5094905;27;20024;-65
2022/06/22 10:46:06;;;;;;;6.85;1.90;;;24.50;99.90;;;;;;5091223;28;20047;-65
2022/06/22 10:49:04;;;;;;;7.40;2.03;;;24.40;99.90;;;;;;5095248;28;20034;-64
2022/06/22 10:51:45;;;;;;;6.22;1.92;;;24.40;99.90;;;;;;5068100;28;20088;-66
2022/06/22 10:54:44;;;;;;;8.45;1.77;;;24.80;99.90;;;;;;5104462;27;20518;-64
2022/06/22 10:57:40;;;;;;;9.57;2.17;;;24.70;99.90;;;;;;5093470;28;20542;-63
2022/06/22 11:00:27;;;;;;;8.43;1.77;;;24.70;99.90;;;;;;5085239;28;20020;-65
2022/06/22 11:03:20;;;;;;;5.30;1.90;;;25.00;99.90;;;;;;5086181;28;20110;-65
2022/06/22 11:06:22;;;;;;;10.05;1.83;;;25.20;99.90;;;;;;5083986;28;20099;-65
2022/06/22 11:09:01;;;;;;;4.25;1.65;;;25.20;99.90;;;;;;5093373;28;20122;-66
2022/06/22 11:12:01;;;;;;;6.57;1.50;;;25.20;99.90;;;;;;5088773;28;20020;-65
2022/06/22 11:15:07;;;;;;;6.03;1.70;;;25.40;99.90;;;;;;5087223;28;20035;-65
2022/06/22 11:18:03;;;;;;;6.63;2.20;;;25.40;99.90;;;;;;5085211;28;20059;-65
2022/06/22 11:20:44;;;;;;;3.97;1.55;;;25.00;99.90;;;;;;5090844;28;20023;-65
2022/06/22 11:23:25;;;;;;;4.07;1.70;;;25.20;99.90;;;;;;5089074;28;20024;-65
2022/06/22 11:32:21;;;;;;;4.78;1.70;;;25.30;99.90;;;;;;5082971;28;20608;-65
2022/06/22 11:35:08;;;;;;;5.35;1.70;;;25.50;99.90;;;;;;5082988;28;20575;-66
2022/06/22 11:37:46;;;;;;;6.45;2.00;;;25.60;99.90;;;;;;5084391;28;20020;-66
2022/06/22 11:40:16;;;;;;;5.22;1.70;;;25.60;99.90;;;;;;5087217;28;20548;-65
2022/06/22 11:43:00;;;;;;;5.30;1.75;;;25.60;99.90;;;;;;5098993;28;20008;-65
2022/06/22 11:45:54;;;;;;;7.35;1.70;;;25.60;99.90;;;;;;5086126;28;20040;-66
2022/06/22 11:48:41;;;;;;;8.48;2.22;;;25.60;99.90;;;;;;5091562;28;20159;-64
2022/06/22 11:51:22;;;;;;;6.03;1.65;;;25.30;99.90;;;;;;5085523;28;20032;-65
2022/06/22 11:54:10;;;;;;;5.93;1.55;;;25.30;99.90;;;;;;5087986;28;20028;-64
2022/06/22 11:57:06;;;;;;;4.40;1.65;;;25.20;99.90;;;;;;5088070;28;20040;-66
2022/06/22 11:59:51;;;;;;;6.55;1.75;;;25.50;99.90;;;;;;5087326;28;20049;-64
2022/06/22 12:02:35;;;;;;;7.13;1.80;;;25.40;99.90;;;;;;5093264;28;20028;-66
2022/06/22 12:05:28;;;;;;;4.50;1.65;;;25.50;99.90;;;;;;5090924;28;20015;-66
2022/06/22 12:08:27;;;;;;;3.38;1.60;;;25.40;99.90;;;;;;5090172;28;20068;-64
2022/06/22 12:11:13;;;;;;;4.43;1.60;;;25.50;99.90;;;;;;5094416;28;20019;-63
2022/06/22 12:15:04;;;;;;;4.57;1.55;;;25.70;99.90;;;;;;5086345;28;20023;-64
2022/06/22 12:16:48;;;;;;;4.63;1.60;;;25.70;99.90;;;;;;5095248;28;20332;-66
2022/06/22 12:19:39;;;;;;;5.15;1.90;;;25.70;99.90;;;;;;5088092;28;20020;-65
2022/06/22 12:22:27;;;;;;;4.65;1.90;;;25.60;99.90;;;;;;5078965;28;20479;-66
2022/06/22 12:25:29;;;;;;;4.50;1.52;;;25.80;99.90;;;;;;5097403;28;20077;-64
2022/06/22 12:28:08;;;;;;;5.28;2.28;;;25.70;99.90;;;;;;5089570;28;20024;-64
2022/06/22 12:31:09;;;;;;;4.28;1.98;;;25.70;99.90;;;;;;5073924;28;20027;-64
2022/06/22 12:33:37;;;;;;;5.65;1.80;;;25.70;99.90;;;;;;5078469;28;20114;-65
2022/06/22 12:36:11;;;;;;;6.32;1.70;;;25.70;99.90;;;;;;5084399;28;20034;-64
2022/06/22 12:39:08;;;;;;;4.70;1.40;;;25.70;99.90;;;;;;5086164;28;20038;-64
2022/06/22 12:41:56;;;;;;;4.55;1.75;;;25.70;99.90;;;;;;5089158;28;20050;-64
2022/06/22 12:44:34;;;;;;;6.53;1.73;;;25.80;99.90;;;;;;5081798;28;20012;-64
2022/06/22 12:47:32;;;;;;;4.22;1.77;;;25.70;99.90;;;;;;5087761;28;20023;-63
2022/06/22 12:50:27;;;;;;;4.55;1.70;;;25.80;99.90;;;;;;5088082;28;20028;-66
2022/06/22 12:52:58;;;;;;;5.13;1.73;;;25.70;99.90;;;;;;5080050;28;20020;-64
2022/06/22 12:55:47;;;;;;;3.38;1.70;;;25.80;99.90;;;;;;5078589;28;20028;-65
2022/06/22 12:58:27;;;;;;;5.22;2.03;;;25.80;99.90;;;;;;5083300;28;20020;-63
2022/06/22 13:00:56;;;;;;;5.55;1.60;;;25.80;99.90;;;;;;5088017;28;20024;-65
2022/06/22 13:03:25;;;;;;;6.65;1.92;;;25.80;99.90;;;;;;5079707;28;20020;-63
2022/06/22 13:05:52;;;;;;;5.00;1.70;;;25.90;99.90;;;;;;5089276;28;20020;-64
2022/06/22 13:08:26;;;;;;;4.25;1.65;;;25.80;99.90;;;;;;5082733;28;20023;-64
2022/06/22 13:10:58;;;;;;;7.05;2.13;;;25.80;99.90;;;;;;5083299;28;20039;-64
2022/06/22 13:13:39;;;;;;;7.53;1.90;;;25.80;99.90;;;;;;5084367;28;20031;-64
2022/06/22 13:16:14;;;;;;;6.50;2.00;;;25.70;99.90;;;;;;5084675;28;20032;-64
2022/06/22 13:18:50;;;;;;;5.25;1.85;;;25.70;99.90;;;;;;5084327;28;20134;-64
2022/06/22 13:21:55;;;;;;;6.00;1.92;;;25.70;99.90;;;;;;5086534;28;20047;-63
2022/06/22 13:25:07;;;;;;;7.00;1.88;;;25.70;99.90;;;;;;5071238;28;20340;-65
2022/06/22 13:27:59;;;;;;;6.30;1.70;;;25.80;99.90;;;;;;5082787;28;20043;-63
2022/06/22 13:30:38;;;;;;;2.93;1.63;;;25.80;99.90;;;;;;5082106;28;20074;-64
2022/06/22 13:33:13;;;;;;;5.10;1.80;;;25.90;99.90;;;;;;5097975;28;20850;-64
2022/06/22 13:35:43;;;;;;;3.88;1.65;;;26.00;99.90;;;;;;5080456;28;20153;-63
2022/06/22 13:38:39;;;;;;;5.13;1.80;;;25.90;99.90;;;;;;5085087;28;20030;-64
2022/06/22 13:41:34;;;;;;;4.40;1.63;;;26.00;99.90;;;;;;5084717;28;20615;-63
2022/06/22 13:44:06;;;;;;;6.82;2.60;;;26.10;99.90;;;;;;5084038;28;20020;-63
2022/06/22 13:46:47;;;;;;;4.15;1.67;;;26.10;99.90;;;;;;5087757;28;20043;-65
2022/06/22 13:49:52;;;;;;;6.40;1.80;;;26.10;99.90;;;;;;5090740;28;20024;-66
2022/06/22 13:52:54;;;;;;;3.78;1.60;;;26.10;99.90;;;;;;5087033;28;20478;-64
2022/06/22 13:55:39;;;;;;;4.25;1.63;;;26.20;99.90;;;;;;5060055;28;20036;-63
2022/06/22 13:58:14;;;;;;;5.93;1.75;;;26.10;99.90;;;;;;5079616;28;20096;-65
2022/06/22 14:00:53;;;;;;;5.60;1.80;;;25.90;99.90;;;;;;5087346;28;20059;-64
2022/06/22 14:03:27;;;;;;;6.53;1.73;;;25.80;99.90;;;;;;5085967;28;20475;-65
2022/06/22 14:05:58;;;;;;;4.55;1.42;;;26.00;99.90;;;;;;5089149;28;20024;-65
2022/06/22 14:08:58;;;;;;;6.20;1.40;;;26.10;99.90;;;;;;5083923;28;20027;-64
2022/06/22 14:11:35;;;;;;;4.03;1.33;;;26.10;99.90;;;;;;5090499;28;20016;-63